Belmont, California
Current Conditions -  °F | °C
As of 10:47 AM on Sunday 21 Dec 2014 (Local Time) from KSQL Reporting Station
Haze Haze  
Wind Chill: 63°   Ceiling: 1500
Heat Index: 63°   Visibility: 4mi
Dew Point: 59°   Wind: 7mph
Humidity: 88%   Direction: 300°WNW
Pressure: 30.32"   Gusts: NA
Location:  37.52°N, 122.27°W
Report Text: KSQL 211847Z 30006KT 4SM BR SCT008 OVC015 17/15 A3032
Loading
Personal Weather Stations






























Interactive Weather Map New forecast layout! Learn more

10-Day Weather Forecast

Advertisements
Track Severe Weather on mobile